createdAt,value
2023-01-12T00:01:33.486Z,-1.11
2023-01-12T00:04:00.167Z,-1.19
2023-01-12T00:06:26.771Z,-1.24
2023-01-12T00:08:53.349Z,-1.27
2023-01-12T00:11:21.364Z,-1.37
2023-01-12T00:13:48.259Z,-1.36
2023-01-12T00:16:36.761Z,-1.33
2023-01-12T00:19:12.104Z,-1.29
2023-01-12T00:21:50.154Z,-1.30
2023-01-12T00:24:20.439Z,-1.28
2023-01-12T00:26:48.470Z,-1.23
2023-01-12T00:29:16.464Z,-1.23
2023-01-12T00:31:43.191Z,-1.21
2023-01-12T00:34:09.776Z,-1.19
2023-01-12T00:36:36.516Z,-1.20
2023-01-12T00:39:03.737Z,-1.24
2023-01-12T00:41:49.151Z,-1.23
2023-01-12T00:44:34.844Z,-1.18
2023-01-12T00:47:01.915Z,-1.09
2023-01-12T00:49:28.804Z,-0.98
2023-01-12T00:51:55.333Z,-0.88
2023-01-12T00:54:21.913Z,-0.78
2023-01-12T00:56:48.482Z,-0.72
2023-01-12T00:59:15.104Z,-0.66
2023-01-12T01:01:41.779Z,-0.65
2023-01-12T01:04:08.455Z,-0.62
2023-01-12T01:06:38.535Z,-0.58
2023-01-12T01:09:05.872Z,-0.56
2023-01-12T01:11:32.529Z,-0.50
2023-01-12T01:13:59.370Z,-0.50
2023-01-12T01:16:26.563Z,-0.46
2023-01-12T01:18:53.156Z,-0.41
2023-01-12T01:21:19.824Z,-0.34
2023-01-12T01:23:46.389Z,-0.29
2023-01-12T01:26:16.226Z,-0.23
2023-01-12T01:28:43.109Z,-0.16
2023-01-12T01:31:21.120Z,-0.09
2023-01-12T01:33:48.557Z,-0.04
2023-01-12T01:36:15.469Z,0.02
2023-01-12T01:38:44.239Z,0.07
2023-01-12T01:41:19.956Z,0.12
2023-01-12T01:44:20.384Z,0.17
2023-01-12T01:46:53.861Z,0.19
2023-01-12T01:49:34.090Z,0.21
2023-01-12T01:52:12.666Z,0.25
2023-01-12T01:54:47.269Z,0.19
2023-01-12T01:57:15.396Z,0.18
2023-01-12T01:59:49.049Z,0.17
2023-01-12T02:02:17.226Z,0.18
2023-01-12T02:04:44.235Z,0.19
2023-01-12T02:07:11.606Z,0.19
2023-01-12T02:09:38.655Z,0.23
2023-01-12T02:12:42.571Z,0.26
2023-01-12T02:15:28.336Z,0.25
2023-01-12T02:18:24.702Z,0.29
2023-01-12T02:21:26.636Z,0.32
2023-01-12T02:24:15.520Z,0.35
2023-01-12T02:27:22.638Z,0.42
2023-01-12T02:30:16.799Z,0.46
2023-01-12T02:33:03.185Z,0.50
2023-01-12T02:35:32.729Z,0.53
2023-01-12T02:38:25.336Z,0.56
2023-01-12T02:41:11.271Z,0.60
2023-01-12T02:43:40.138Z,0.60
2023-01-12T02:46:21.881Z,0.61
2023-01-12T02:48:54.632Z,0.63
2023-01-12T02:51:37.457Z,0.62
2023-01-12T02:54:03.984Z,0.58
2023-01-12T02:56:35.363Z,0.56
2023-01-12T02:59:26.244Z,0.55
2023-01-12T03:01:57.670Z,0.50
2023-01-12T03:04:25.287Z,0.42
2023-01-12T03:06:51.933Z,0.39
2023-01-12T03:09:19.063Z,0.41
2023-01-12T03:11:48.532Z,0.44
2023-01-12T03:14:17.353Z,0.48
2023-01-12T03:16:44.009Z,0.53
2023-01-12T03:19:29.406Z,0.60
2023-01-12T03:22:02.879Z,0.69
2023-01-12T03:24:35.504Z,0.75
2023-01-12T03:27:09.825Z,0.76
2023-01-12T03:29:40.025Z,0.79
2023-01-12T03:32:07.117Z,0.82
2023-01-12T03:34:35.418Z,0.83
2023-01-12T03:37:17.425Z,0.84
2023-01-12T03:40:08.241Z,0.88
2023-01-12T03:42:48.102Z,0.90
2023-01-12T03:45:28.619Z,0.92
2023-01-12T03:48:06.453Z,0.94
2023-01-12T03:50:45.113Z,0.97
2023-01-12T03:53:15.797Z,1.01
2023-01-12T03:55:44.921Z,1.02
2023-01-12T03:58:11.679Z,1.08
2023-01-12T04:00:38.841Z,1.12
2023-01-12T04:03:13.678Z,1.12
2023-01-12T04:05:42.386Z,1.13
2023-01-12T04:08:10.025Z,1.15
2023-01-12T04:10:36.587Z,1.18
2023-01-12T04:13:03.395Z,1.22
2023-01-12T04:15:29.928Z,1.24
2023-01-12T04:17:56.535Z,1.26
2023-01-12T04:20:23.447Z,1.28
2023-01-12T04:22:50.003Z,1.29
2023-01-12T04:25:20.454Z,1.33
2023-01-12T04:27:53.310Z,1.33
2023-01-12T04:30:23.579Z,1.34
2023-01-12T04:32:50.921Z,1.39
2023-01-12T04:35:17.836Z,1.39
2023-01-12T04:37:44.953Z,1.39
2023-01-12T04:40:13.577Z,1.41
2023-01-12T04:43:01.041Z,1.45
2023-01-12T04:45:32.510Z,1.44
2023-01-12T04:48:04.947Z,1.48
2023-01-12T04:50:31.597Z,1.50
2023-01-12T04:52:58.256Z,1.51
2023-01-12T04:55:25.007Z,1.50
2023-01-12T04:57:51.639Z,1.54
2023-01-12T05:00:18.780Z,1.55
2023-01-12T05:02:45.308Z,1.60
2023-01-12T05:05:11.841Z,1.61
2023-01-12T05:07:58.510Z,1.65
2023-01-12T05:10:25.119Z,1.67
2023-01-12T05:12:51.664Z,1.70
2023-01-12T05:15:18.271Z,1.72
2023-01-12T05:17:46.266Z,1.73
2023-01-12T05:20:12.869Z,1.76
2023-01-12T05:22:39.391Z,1.79
2023-01-12T05:25:06.699Z,1.80
2023-01-12T05:27:33.250Z,1.82
2023-01-12T05:29:59.937Z,1.82
2023-01-12T05:32:26.975Z,1.84
2023-01-12T05:34:53.554Z,1.86
2023-01-12T05:37:20.111Z,1.88
2023-01-12T05:39:46.716Z,1.89
2023-01-12T05:42:31.867Z,1.92
2023-01-12T05:44:58.298Z,1.92
2023-01-12T05:47:24.877Z,1.97
2023-01-12T05:49:51.736Z,1.98
2023-01-12T05:52:18.315Z,2.01
2023-01-12T05:54:44.849Z,2.03
2023-01-12T05:57:11.375Z,2.05
2023-01-12T05:59:38.141Z,2.09
2023-01-12T06:02:04.793Z,2.11
2023-01-12T06:04:31.418Z,2.10
2023-01-12T06:06:57.978Z,2.09
2023-01-12T06:09:24.550Z,2.10
2023-01-12T06:12:09.370Z,2.10
2023-01-12T06:14:35.929Z,2.13
2023-01-12T06:17:02.500Z,2.14
2023-01-12T06:19:29.142Z,2.17
2023-01-12T06:21:59.395Z,2.20
2023-01-12T06:24:28.277Z,2.22
2023-01-12T06:26:55.174Z,2.21
2023-01-12T06:29:21.735Z,2.24
2023-01-12T06:31:48.293Z,2.24
2023-01-12T06:34:14.855Z,2.27
2023-01-12T06:36:41.530Z,2.27
2023-01-12T06:39:08.098Z,2.24
2023-01-12T06:41:53.902Z,2.25
2023-01-12T06:44:20.493Z,2.26
2023-01-12T06:46:48.105Z,2.30
2023-01-12T06:49:16.582Z,2.31
2023-01-12T06:51:43.971Z,2.33
2023-01-12T06:54:10.516Z,2.34
2023-01-12T06:56:37.122Z,2.37
2023-01-12T06:59:03.750Z,2.38
2023-01-12T07:01:30.816Z,2.39
2023-01-12T07:03:57.510Z,2.42
2023-01-12T07:06:24.063Z,2.46
2023-01-12T07:08:50.621Z,2.46
2023-01-12T07:11:17.228Z,2.51
2023-01-12T07:13:43.798Z,2.55
2023-01-12T07:16:10.824Z,2.58
2023-01-12T07:18:37.442Z,2.61
2023-01-12T07:21:05.881Z,2.64
2023-01-12T07:23:32.441Z,2.67
2023-01-12T07:25:59.100Z,2.72
2023-01-12T07:28:25.697Z,2.76
2023-01-12T07:30:52.373Z,2.79
2023-01-12T07:33:20.007Z,2.84
2023-01-12T07:35:46.584Z,2.88
2023-01-12T07:38:13.213Z,2.94
2023-01-12T07:40:39.792Z,3.00
2023-01-12T07:43:08.860Z,3.03
2023-01-12T07:45:35.542Z,3.06
2023-01-12T07:48:02.175Z,3.09
2023-01-12T07:50:29.185Z,3.09
2023-01-12T07:52:55.959Z,3.10
2023-01-12T07:55:22.535Z,3.13
2023-01-12T07:58:00.774Z,3.15
2023-01-12T08:00:27.682Z,3.15
2023-01-12T08:02:55.976Z,3.19
2023-01-12T08:05:23.034Z,3.18
2023-01-12T08:07:50.022Z,3.23
2023-01-12T08:10:17.197Z,3.26
2023-01-12T08:12:43.824Z,3.29
2023-01-12T08:15:11.674Z,3.35
2023-01-12T08:18:09.155Z,3.39
2023-01-12T08:20:37.001Z,3.43
2023-01-12T08:23:29.882Z,3.48
2023-01-12T08:26:01.152Z,3.53
2023-01-12T08:28:43.367Z,3.58
2023-01-12T08:31:14.039Z,3.62
2023-01-12T08:33:41.697Z,3.73
2023-01-12T08:36:10.412Z,3.83
2023-01-12T08:38:37.521Z,3.88
2023-01-12T08:41:23.069Z,3.99
2023-01-12T08:44:08.145Z,4.31
2023-01-12T08:46:34.602Z,4.57
2023-01-12T08:49:02.184Z,4.94
2023-01-12T08:51:30.339Z,5.24
2023-01-12T08:53:56.910Z,5.53
2023-01-12T08:56:23.595Z,5.70
2023-01-12T08:58:50.344Z,5.82
2023-01-12T09:01:17.434Z,5.94
2023-01-12T09:03:44.491Z,6.00
2023-01-12T09:06:26.729Z,6.03
2023-01-12T09:08:58.507Z,6.06
2023-01-12T09:11:27.563Z,6.06
2023-01-12T09:13:56.074Z,6.13
2023-01-12T09:16:22.949Z,6.14
2023-01-12T09:18:49.576Z,6.31
2023-01-12T09:21:19.231Z,6.57
2023-01-12T09:23:46.637Z,6.80
2023-01-12T09:26:15.738Z,6.95
2023-01-12T09:28:45.075Z,7.07
2023-01-12T09:31:14.224Z,7.16
2023-01-12T09:33:42.048Z,7.27
2023-01-12T09:36:17.560Z,7.45
2023-01-12T09:38:45.592Z,7.73
2023-01-12T09:41:39.424Z,8.23
2023-01-12T09:44:31.641Z,8.86
2023-01-12T09:46:58.567Z,9.25
2023-01-12T09:49:30.801Z,9.64
2023-01-12T09:52:32.767Z,10.26
2023-01-12T09:54:59.472Z,10.79
2023-01-12T09:57:47.344Z,11.52
2023-01-12T10:00:16.470Z,12.00
2023-01-12T10:02:50.328Z,12.26
2023-01-12T10:05:31.528Z,12.11
2023-01-12T10:08:06.814Z,12.20
2023-01-12T10:10:33.583Z,11.83
2023-01-12T10:13:07.225Z,11.46
2023-01-12T10:16:02.755Z,11.18
2023-01-12T10:18:41.281Z,11.28
2023-01-12T10:21:11.286Z,11.01
2023-01-12T10:23:38.254Z,10.66
2023-01-12T10:26:38.894Z,10.32
2023-01-12T10:29:05.480Z,10.17
2023-01-12T10:31:32.073Z,9.97
2023-01-12T10:34:02.433Z,9.70
2023-01-12T10:36:30.243Z,9.31
2023-01-12T10:39:02.194Z,9.17
2023-01-12T10:41:33.792Z,9.02
2023-01-12T10:44:00.300Z,8.85
2023-01-12T10:46:29.852Z,8.75
2023-01-12T10:49:15.139Z,8.70
2023-01-12T10:52:30.432Z,8.70
2023-01-12T10:54:58.918Z,8.59
2023-01-12T10:57:25.717Z,8.49
2023-01-12T10:59:55.861Z,8.49
2023-01-12T11:02:24.276Z,8.42
2023-01-12T11:04:52.982Z,8.43
2023-01-12T11:07:31.493Z,8.44
2023-01-12T11:10:19.289Z,8.38
2023-01-12T11:12:57.269Z,8.40
2023-01-12T11:15:23.843Z,8.38
2023-01-12T11:18:15.380Z,8.43
2023-01-12T11:20:50.057Z,8.48
2023-01-12T11:23:26.894Z,8.47
2023-01-12T11:25:53.972Z,8.46
2023-01-12T11:28:30.143Z,8.50
2023-01-12T11:31:13.064Z,8.48
2023-01-12T11:33:45.015Z,8.49
2023-01-12T11:36:23.490Z,8.49
2023-01-12T11:39:06.647Z,8.47
2023-01-12T11:41:36.025Z,8.50
2023-01-12T11:44:15.986Z,8.40
2023-01-12T11:46:51.138Z,8.41
2023-01-12T11:49:36.900Z,8.44
2023-01-12T11:52:03.550Z,8.50
2023-01-12T11:54:32.018Z,8.45
2023-01-12T11:57:32.287Z,8.42
2023-01-12T12:00:28.127Z,8.49
2023-01-12T12:03:17.669Z,8.61
2023-01-12T12:05:49.731Z,8.80
2023-01-12T12:08:18.997Z,8.94
2023-01-12T12:10:57.488Z,9.10
2023-01-12T12:13:40.805Z,9.35
2023-01-12T12:16:23.669Z,9.50
2023-01-12T12:18:56.204Z,9.69
2023-01-12T12:21:44.514Z,9.54
2023-01-12T12:24:25.041Z,9.56
2023-01-12T12:27:09.706Z,9.68
2023-01-12T12:29:48.972Z,9.88
2023-01-12T12:32:41.017Z,10.00
2023-01-12T12:35:45.221Z,10.10
2023-01-12T12:38:38.451Z,9.75
2023-01-12T12:41:35.697Z,9.78
2023-01-12T12:44:55.921Z,10.05
2023-01-12T12:47:46.686Z,10.07
2023-01-12T12:50:21.413Z,10.06
2023-01-12T12:53:03.466Z,10.01
2023-01-12T12:55:31.155Z,10.01
2023-01-12T12:58:03.544Z,9.91
2023-01-12T13:00:46.740Z,9.99
2023-01-12T13:03:41.405Z,10.03
2023-01-12T13:06:26.537Z,9.88
2023-01-12T13:08:55.534Z,9.93
2023-01-12T13:12:00.612Z,10.01
2023-01-12T13:14:31.409Z,10.27
2023-01-12T13:17:19.917Z,10.61
2023-01-12T13:19:48.400Z,10.66
2023-01-12T13:22:26.983Z,10.67
2023-01-12T13:24:55.268Z,10.87
2023-01-12T13:27:51.121Z,11.11
2023-01-12T13:30:22.920Z,11.26
2023-01-12T13:32:55.241Z,11.21
2023-01-12T13:35:33.702Z,11.18
2023-01-12T13:38:15.246Z,11.37
2023-01-12T13:40:42.538Z,11.55
2023-01-12T13:43:27.491Z,11.92
2023-01-12T13:45:59.877Z,11.92
2023-01-12T13:48:30.166Z,12.02
2023-01-12T13:51:01.237Z,12.50
2023-01-12T13:53:30.311Z,12.93
2023-01-12T13:56:03.281Z,13.30
2023-01-12T13:58:39.586Z,13.39
2023-01-12T14:01:34.027Z,13.60
2023-01-12T14:04:20.400Z,13.42
2023-01-12T14:07:16.484Z,13.55
2023-01-12T14:10:33.938Z,13.80
2023-01-12T14:13:28.264Z,13.99
2023-01-12T14:16:30.627Z,13.86
2023-01-12T14:18:58.604Z,13.69
2023-01-12T14:21:26.815Z,13.65
2023-01-12T14:23:54.278Z,13.50
2023-01-12T14:26:24.175Z,13.50
2023-01-12T14:28:51.986Z,13.80
2023-01-12T14:31:53.997Z,13.95
2023-01-12T14:34:29.798Z,13.83
2023-01-12T14:36:56.940Z,13.47
2023-01-12T14:39:27.729Z,12.89
2023-01-12T14:42:14.650Z,12.45
2023-01-12T14:45:14.340Z,12.19
2023-01-12T14:47:41.608Z,12.17
2023-01-12T14:50:20.849Z,12.08
2023-01-12T14:52:48.502Z,11.73
2023-01-12T14:55:16.486Z,11.23
2023-01-12T14:57:43.484Z,10.73
2023-01-12T15:00:43.589Z,10.21
2023-01-12T15:03:26.381Z,9.85
2023-01-12T15:05:55.641Z,9.64
2023-01-12T15:08:26.981Z,9.39
2023-01-12T15:11:10.067Z,9.07
2023-01-12T15:13:37.825Z,8.84
2023-01-12T15:16:24.090Z,8.71
2023-01-12T15:19:09.560Z,8.42
2023-01-12T15:21:56.540Z,8.27
2023-01-12T15:24:45.488Z,8.03
2023-01-12T15:27:14.558Z,7.88
2023-01-12T15:29:41.563Z,7.65
2023-01-12T15:32:52.135Z,7.52
2023-01-12T15:35:30.056Z,7.34
2023-01-12T15:37:58.023Z,7.18
2023-01-12T15:40:26.336Z,6.98
2023-01-12T15:42:53.839Z,6.76
2023-01-12T15:45:20.407Z,6.55
2023-01-12T15:47:47.123Z,6.41
2023-01-12T15:50:13.757Z,6.30
2023-01-12T15:52:40.349Z,6.21
2023-01-12T15:55:08.808Z,6.03
2023-01-12T15:57:36.875Z,5.86
2023-01-12T16:00:03.923Z,5.72
2023-01-12T16:02:36.958Z,5.64
2023-01-12T16:05:05.875Z,5.56
2023-01-12T16:07:32.955Z,5.44
2023-01-12T16:09:59.835Z,5.41
2023-01-12T16:12:26.871Z,5.38
2023-01-12T16:14:53.739Z,5.23
2023-01-12T16:17:20.337Z,5.17
2023-01-12T16:19:46.923Z,5.08
2023-01-12T16:22:21.437Z,5.00
2023-01-12T16:24:49.017Z,4.92
2023-01-12T16:27:16.474Z,4.76
2023-01-12T16:29:44.942Z,4.61
2023-01-12T16:32:11.973Z,4.45
2023-01-12T16:34:38.752Z,4.30
2023-01-12T16:37:05.339Z,4.26
2023-01-12T16:39:32.384Z,4.16
2023-01-12T16:42:04.543Z,4.05
2023-01-12T16:44:38.756Z,3.89
2023-01-12T16:47:07.302Z,3.79
2023-01-12T16:49:36.116Z,3.76
2023-01-12T16:52:04.503Z,3.73
2023-01-12T16:54:31.262Z,3.60
2023-01-12T16:56:58.872Z,3.59
2023-01-12T16:59:28.422Z,3.63
2023-01-12T17:01:56.502Z,3.57
2023-01-12T17:04:23.374Z,3.38
2023-01-12T17:06:50.101Z,3.24
2023-01-12T17:09:16.980Z,3.11
2023-01-12T17:11:43.908Z,2.99
2023-01-12T17:14:24.267Z,2.88
2023-01-12T17:16:53.201Z,2.89
2023-01-12T17:19:21.578Z,2.79
2023-01-12T17:21:49.862Z,2.73
2023-01-12T17:24:18.478Z,2.73
2023-01-12T17:26:46.140Z,2.62
2023-01-12T17:29:13.113Z,2.52
2023-01-12T17:31:41.614Z,2.42
2023-01-12T17:34:11.404Z,2.27
2023-01-12T17:36:38.882Z,2.25
2023-01-12T17:39:05.939Z,2.24
2023-01-12T17:41:50.889Z,2.21
2023-01-12T17:44:17.942Z,2.19
2023-01-12T17:46:44.773Z,2.11
2023-01-12T17:49:12.178Z,2.14
2023-01-12T17:51:39.937Z,2.11
2023-01-12T17:54:08.704Z,2.16
2023-01-12T17:56:35.652Z,2.18
2023-01-12T17:59:03.209Z,2.22
2023-01-12T18:01:32.601Z,2.15
2023-01-12T18:04:00.356Z,2.20
2023-01-12T18:06:27.980Z,2.22
2023-01-12T18:08:56.688Z,2.23
2023-01-12T18:11:23.988Z,2.17
2023-01-12T18:13:50.642Z,2.19
2023-01-12T18:16:17.516Z,2.17
2023-01-12T18:18:44.445Z,2.14
2023-01-12T18:21:13.941Z,2.15
2023-01-12T18:23:41.817Z,2.15
2023-01-12T18:26:12.314Z,2.07
2023-01-12T18:28:39.008Z,1.99
2023-01-12T18:31:11.145Z,1.95
2023-01-12T18:33:38.332Z,1.92
2023-01-12T18:36:14.780Z,1.93
2023-01-12T18:38:41.905Z,1.92
2023-01-12T18:41:27.488Z,1.89
2023-01-12T18:43:54.580Z,1.77
2023-01-12T18:46:21.557Z,1.76
2023-01-12T18:48:48.258Z,1.72
2023-01-12T18:51:34.199Z,1.71
2023-01-12T18:54:01.534Z,1.74
2023-01-12T18:56:28.168Z,1.75
2023-01-12T18:58:54.834Z,1.77
2023-01-12T19:01:24.604Z,1.66
2023-01-12T19:03:52.980Z,1.64
2023-01-12T19:06:43.337Z,1.54
2023-01-12T19:09:47.074Z,1.44
2023-01-12T19:12:13.673Z,1.41
2023-01-12T19:14:58.629Z,1.38
2023-01-12T19:17:28.066Z,1.29
2023-01-12T19:19:55.237Z,1.18
2023-01-12T19:22:40.245Z,1.16
2023-01-12T19:25:25.996Z,1.13
2023-01-12T19:28:10.888Z,1.08
2023-01-12T19:30:40.563Z,1.04
2023-01-12T19:33:08.943Z,0.82
2023-01-12T19:35:36.945Z,0.68
2023-01-12T19:38:03.870Z,0.61
2023-01-12T19:40:35.537Z,0.55
2023-01-12T19:43:19.350Z,0.46
2023-01-12T19:45:51.600Z,0.36
2023-01-12T19:48:20.024Z,0.35
2023-01-12T19:50:46.904Z,0.43
2023-01-12T19:53:20.413Z,0.43
2023-01-12T19:55:48.503Z,0.40
2023-01-12T19:58:15.252Z,0.32
2023-01-12T20:00:46.201Z,0.30
2023-01-12T20:03:15.256Z,0.24
2023-01-12T20:05:42.901Z,0.21
2023-01-12T20:08:11.318Z,0.20
2023-01-12T20:10:38.688Z,0.15
2023-01-12T20:13:06.401Z,0.12
2023-01-12T20:15:33.789Z,0.07
2023-01-12T20:18:01.901Z,0.06
2023-01-12T20:20:29.314Z,0.04
2023-01-12T20:22:57.236Z,0.03
2023-01-12T20:25:27.891Z,0.02
2023-01-12T20:27:54.775Z,0.13
2023-01-12T20:30:36.960Z,0.21
2023-01-12T20:33:05.606Z,0.27
2023-01-12T20:35:32.480Z,0.39
2023-01-12T20:37:59.135Z,0.48
2023-01-12T20:40:25.692Z,0.62
2023-01-12T20:42:52.277Z,0.70
2023-01-12T20:45:23.181Z,0.76
2023-01-12T20:47:49.806Z,0.76
2023-01-12T20:50:18.704Z,0.73
2023-01-12T20:52:48.222Z,0.70
2023-01-12T20:55:15.838Z,0.68
2023-01-12T20:57:42.447Z,0.62
2023-01-12T21:00:10.363Z,0.51
2023-01-12T21:02:37.127Z,0.45
2023-01-12T21:05:03.888Z,0.38
2023-01-12T21:07:30.512Z,0.35
2023-01-12T21:09:57.067Z,0.26
2023-01-12T21:12:25.283Z,0.20
2023-01-12T21:14:54.321Z,0.13
2023-01-12T21:17:21.295Z,0.05
2023-01-12T21:19:47.964Z,0.05
2023-01-12T21:22:14.608Z,0.05
2023-01-12T21:24:41.230Z,0.03
2023-01-12T21:27:07.889Z,0.08
2023-01-12T21:29:34.510Z,0.12
2023-01-12T21:32:01.530Z,0.07
2023-01-12T21:34:28.282Z,0.07
2023-01-12T21:36:54.872Z,0.04
2023-01-12T21:39:21.452Z,0.09
2023-01-12T21:42:06.775Z,0.09
2023-01-12T21:44:33.350Z,0.13
2023-01-12T21:46:59.917Z,0.13
2023-01-12T21:49:26.459Z,0.15
2023-01-12T21:51:53.011Z,0.09
2023-01-12T21:54:19.685Z,-0.03
2023-01-12T21:56:46.268Z,-0.14
2023-01-12T21:59:12.914Z,-0.21
2023-01-12T22:01:39.820Z,-0.24
2023-01-12T22:04:06.714Z,-0.30
2023-01-12T22:06:33.357Z,-0.37
2023-01-12T22:08:59.946Z,-0.44
2023-01-12T22:11:26.541Z,-0.49
2023-01-12T22:13:53.112Z,-0.48
2023-01-12T22:16:19.738Z,-0.48
2023-01-12T22:18:49.969Z,-0.47
2023-01-12T22:21:18.126Z,-0.48
2023-01-12T22:23:44.916Z,-0.55
2023-01-12T22:26:14.165Z,-0.57
2023-01-12T22:28:42.854Z,-0.52
2023-01-12T22:31:18.760Z,-0.38
2023-01-12T22:33:54.887Z,-0.29
2023-01-12T22:36:21.547Z,-0.20
2023-01-12T22:38:48.146Z,-0.12
2023-01-12T22:41:14.797Z,-0.10
2023-01-12T22:43:41.503Z,-0.12
2023-01-12T22:46:28.363Z,-0.11
2023-01-12T22:48:57.366Z,-0.15
2023-01-12T22:51:25.834Z,-0.19
2023-01-12T22:53:53.642Z,-0.20
2023-01-12T22:56:20.631Z,-0.21
2023-01-12T22:58:48.616Z,-0.23
2023-01-12T23:01:16.472Z,-0.31
2023-01-12T23:03:43.231Z,-0.29
2023-01-12T23:06:15.230Z,-0.29
2023-01-12T23:08:43.231Z,-0.32
2023-01-12T23:11:28.916Z,-0.38
2023-01-12T23:13:56.273Z,-0.45
2023-01-12T23:16:23.194Z,-0.48
2023-01-12T23:18:50.378Z,-0.55
2023-01-12T23:21:27.398Z,-0.60
2023-01-12T23:23:56.615Z,-0.65
2023-01-12T23:26:33.527Z,-0.72
2023-01-12T23:29:02.875Z,-0.79
2023-01-12T23:31:32.179Z,-0.85
2023-01-12T23:33:58.873Z,-0.92
2023-01-12T23:36:27.769Z,-0.97
2023-01-12T23:38:59.691Z,-0.99
2023-01-12T23:41:27.892Z,-1.00
2023-01-12T23:43:56.917Z,-1.02
2023-01-12T23:46:23.999Z,-1.04
2023-01-12T23:48:51.961Z,-1.06
2023-01-12T23:51:18.730Z,-1.09
2023-01-12T23:53:45.310Z,-1.10
2023-01-12T23:56:14.219Z,-1.10
2023-01-12T23:58:41.089Z,-1.11
